Time;durP1;ratioP1;P1;durP2;ratioP2;P2;SDS_P1;SDS_P2;PMS_P1;PMS_P2;Temp;Humidity;BMP_temperature;BMP_pressure;BME280_temperature;BME280_humidity;BME280_pressure;Samples;Min_cycle;Max_cycle;Signal;HPM_P1;HPM_P2
2022/08/16 03:00:37;;;;;;;0.83;0.83;;;20.30;76.10;;;;;;6138437;22;20372;31
2022/08/16 03:03:06;;;;;;;0.70;0.70;;;20.20;76.30;;;;;;4953936;29;20474;-72
2022/08/16 03:05:33;;;;;;;0.70;0.67;;;19.90;77.50;;;;;;4954919;29;20985;-73
2022/08/16 03:08:00;;;;;;;0.70;0.70;;;19.80;78.00;;;;;;4955152;29;20475;-73
2022/08/16 03:10:27;;;;;;;0.80;0.80;;;19.70;78.30;;;;;;4954869;28;20848;-73
2022/08/16 03:12:53;;;;;;;0.70;0.70;;;19.70;78.30;;;;;;4955180;28;20815;-72
2022/08/16 03:15:26;;;;;;;1.00;0.77;;;19.80;78.10;;;;;;4959006;29;20515;-71
2022/08/16 03:17:53;;;;;;;0.70;0.70;;;19.80;78.00;;;;;;4959067;29;20431;-72
2022/08/16 03:20:21;;;;;;;0.80;0.70;;;20.00;77.60;;;;;;4958901;29;21025;-73
2022/08/16 03:22:48;;;;;;;0.70;0.70;;;20.10;76.90;;;;;;4959662;28;20467;-73
2022/08/16 03:25:16;;;;;;;0.80;0.80;;;20.10;76.80;;;;;;4958908;29;20931;-72
2022/08/16 03:27:43;;;;;;;0.70;0.60;;;20.20;76.70;;;;;;4958841;28;20466;-73
2022/08/16 03:30:12;;;;;;;0.70;0.70;;;20.30;76.40;;;;;;4958766;29;20506;-72
2022/08/16 03:32:39;;;;;;;0.97;0.97;;;20.10;76.80;;;;;;4958673;28;20474;-71
2022/08/16 03:35:07;;;;;;;0.70;0.60;;;20.00;77.30;;;;;;4958627;29;20487;-72
2022/08/16 03:37:36;;;;;;;0.90;0.80;;;20.00;77.10;;;;;;4958619;29;20459;-73
2022/08/16 03:40:04;;;;;;;1.10;1.00;;;20.00;77.10;;;;;;4958294;29;21006;-73
2022/08/16 03:42:31;;;;;;;0.80;0.80;;;20.00;77.40;;;;;;4958467;28;20546;-73
2022/08/16 03:44:57;;;;;;;0.70;0.70;;;20.10;76.90;;;;;;4958500;29;20447;-73
2022/08/16 03:47:26;;;;;;;0.70;0.70;;;20.10;76.70;;;;;;4958482;29;20503;-73
2022/08/16 03:49:52;;;;;;;0.97;0.87;;;20.20;76.50;;;;;;4958416;29;20553;-72
2022/08/16 03:52:19;;;;;;;0.70;0.70;;;20.20;76.50;;;;;;4958289;28;20514;-72
2022/08/16 03:54:47;;;;;;;0.70;0.70;;;20.10;76.90;;;;;;4958280;29;20537;-73
2022/08/16 03:57:14;;;;;;;0.70;0.70;;;20.20;76.50;;;;;;4958314;29;20534;-72
2022/08/16 03:59:41;;;;;;;0.70;0.70;;;20.30;76.20;;;;;;4958264;29;20868;-72
2022/08/16 04:02:10;;;;;;;0.70;0.70;;;20.30;76.10;;;;;;4958181;28;20533;-72
2022/08/16 04:04:38;;;;;;;0.83;0.60;;;20.30;76.10;;;;;;4958178;29;20458;-72
2022/08/16 04:07:06;;;;;;;0.70;0.60;;;20.30;75.90;;;;;;4958168;29;20459;-72
2022/08/16 04:09:34;;;;;;;0.73;0.73;;;20.40;75.80;;;;;;4958083;29;20455;-72
2022/08/16 04:12:02;;;;;;;0.70;0.70;;;20.40;75.70;;;;;;4957956;28;20470;-72
2022/08/16 04:14:29;;;;;;;0.70;0.70;;;20.40;75.70;;;;;;4957912;29;20494;-72
2022/08/16 04:16:56;;;;;;;0.80;0.80;;;20.40;75.80;;;;;;4957934;29;20451;-72
2022/08/16 04:19:24;;;;;;;1.00;0.70;;;20.40;75.70;;;;;;4957905;29;20502;-72
2022/08/16 04:21:51;;;;;;;0.97;0.80;;;20.50;75.60;;;;;;4957452;28;20899;-72
2022/08/16 04:24:18;;;;;;;0.70;0.70;;;20.50;75.50;;;;;;4957841;28;20451;-72
2022/08/16 04:26:45;;;;;;;0.70;0.70;;;20.50;75.40;;;;;;4957439;29;20830;-72
2022/08/16 04:29:13;;;;;;;0.70;0.70;;;20.60;75.20;;;;;;4957457;28;20452;-73
2022/08/16 04:31:40;;;;;;;0.80;0.70;;;20.70;74.90;;;;;;4957607;28;20470;-72
2022/08/16 04:34:06;;;;;;;0.90;0.80;;;20.70;74.80;;;;;;4957538;29;20479;-72
2022/08/16 04:36:34;;;;;;;0.70;0.70;;;20.80;74.70;;;;;;4957600;29;20463;-73
2022/08/16 04:39:01;;;;;;;0.90;0.73;;;20.80;74.50;;;;;;4957201;29;20932;-72
2022/08/16 04:41:30;;;;;;;0.80;0.80;;;20.90;74.60;;;;;;4957413;28;20530;-72
2022/08/16 04:43:57;;;;;;;0.80;0.80;;;20.90;74.50;;;;;;4957467;29;20454;-72
2022/08/16 04:46:25;;;;;;;0.70;0.60;;;20.90;74.30;;;;;;4957424;29;20462;-73
2022/08/16 04:48:52;;;;;;;0.70;0.60;;;20.90;74.30;;;;;;4957372;29;20455;-72
2022/08/16 04:51:19;;;;;;;0.70;0.70;;;20.80;74.60;;;;;;4957268;28;20467;-73
2022/08/16 04:53:45;;;;;;;0.70;0.60;;;20.70;74.70;;;;;;4956920;29;20832;-73
2022/08/16 04:56:12;;;;;;;0.80;0.70;;;20.60;75.10;;;;;;4957260;29;20455;-72
2022/08/16 04:58:39;;;;;;;0.70;0.70;;;20.70;74.80;;;;;;4956896;29;20871;-72
2022/08/16 05:01:05;;;;;;;0.80;0.73;;;20.80;74.60;;;;;;4956922;28;20897;-72
2022/08/16 05:03:33;;;;;;;0.80;0.80;;;20.90;74.40;;;;;;4957153;29;20435;-72
2022/08/16 05:06:00;;;;;;;0.80;0.70;;;20.90;74.20;;;;;;4957064;29;20505;-72
2022/08/16 05:08:29;;;;;;;0.80;0.70;;;21.00;74.10;;;;;;4957028;29;20450;-72
2022/08/16 05:10:56;;;;;;;0.80;0.70;;;21.10;74.10;;;;;;4956934;28;20474;-72
2022/08/16 05:13:22;;;;;;;0.73;0.73;;;21.10;74.00;;;;;;4956938;29;20510;-73
2022/08/16 05:15:49;;;;;;;0.70;0.70;;;21.20;73.80;;;;;;4956830;29;20538;-72
2022/08/16 05:18:16;;;;;;;1.00;0.77;;;21.20;73.70;;;;;;4956884;29;20497;-72
2022/08/16 05:20:44;;;;;;;1.10;0.70;;;21.10;73.90;;;;;;4956702;28;20450;-73
2022/08/16 05:23:10;;;;;;;0.80;0.70;;;20.80;74.70;;;;;;4956767;29;20853;-72
2022/08/16 05:25:37;;;;;;;0.80;0.80;;;20.50;75.60;;;;;;4957479;29;20842;-73
2022/08/16 05:28:04;;;;;;;0.80;0.80;;;20.40;76.40;;;;;;4956353;29;20965;-73
2022/08/16 05:30:31;;;;;;;0.70;0.70;;;20.40;76.40;;;;;;4956547;28;20458;-72
2022/08/16 05:32:57;;;;;;;0.70;0.70;;;20.40;76.10;;;;;;4956543;29;20451;-72
2022/08/16 05:35:24;;;;;;;0.70;0.70;;;20.50;76.10;;;;;;4956438;29;20510;-72
2022/08/16 05:37:52;;;;;;;0.80;0.80;;;20.70;75.70;;;;;;4955653;28;20458;-72
2022/08/16 05:40:18;;;;;;;0.70;0.70;;;20.70;75.40;;;;;;4956359;29;20509;-73
2022/08/16 05:42:45;;;;;;;0.70;0.63;;;20.70;75.50;;;;;;4956318;28;20471;-73
2022/08/16 05:45:12;;;;;;;0.80;0.70;;;20.80;75.60;;;;;;4956351;29;20506;-73
2022/08/16 05:47:38;;;;;;;0.70;0.70;;;20.90;75.40;;;;;;4956248;29;20451;-74
2022/08/16 05:50:06;;;;;;;0.77;0.60;;;21.00;75.20;;;;;;4956208;29;20506;-73
2022/08/16 05:52:33;;;;;;;0.80;0.80;;;21.20;74.60;;;;;;4956144;28;20491;-73
2022/08/16 05:55:01;;;;;;;0.70;0.70;;;21.10;74.30;;;;;;4956085;29;20498;-73
2022/08/16 05:57:29;;;;;;;0.80;0.80;;;21.20;74.10;;;;;;4956077;29;20474;-72
2022/08/16 05:59:55;;;;;;;0.90;0.83;;;21.20;74.00;;;;;;4956082;29;20873;-72
2022/08/16 06:02:25;;;;;;;0.80;0.60;;;21.10;74.40;;;;;;4955548;28;20607;-72
2022/08/16 06:04:51;;;;;;;0.70;0.67;;;21.30;73.90;;;;;;4956003;29;20853;-72
2022/08/16 06:07:18;;;;;;;0.80;0.70;;;21.40;73.70;;;;;;4955979;29;20510;-71
2022/08/16 06:09:45;;;;;;;0.70;0.70;;;21.30;73.50;;;;;;4955961;29;20952;-72
2022/08/16 06:12:14;;;;;;;0.70;0.70;;;21.20;73.90;;;;;;4955812;28;20482;-72
2022/08/16 06:14:41;;;;;;;0.70;0.60;;;21.30;74.50;;;;;;4955704;29;20482;-72
2022/08/16 06:17:08;;;;;;;0.70;0.70;;;21.40;74.00;;;;;;4955678;29;20451;-71
2022/08/16 06:19:34;;;;;;;0.70;0.60;;;21.50;73.60;;;;;;4955886;29;20498;-73
2022/08/16 06:22:01;;;;;;;0.80;0.70;;;21.80;72.80;;;;;;4955362;28;20479;-72
2022/08/16 06:24:28;;;;;;;0.80;0.80;;;22.00;72.00;;;;;;4955728;29;20477;-73
2022/08/16 06:26:55;;;;;;;1.07;0.73;;;22.10;72.20;;;;;;4955744;29;20822;-73
2022/08/16 06:29:22;;;;;;;0.80;0.70;;;22.30;71.10;;;;;;4955626;29;20873;-73
2022/08/16 06:31:49;;;;;;;0.70;0.70;;;22.30;71.20;;;;;;4955513;28;20881;-73
2022/08/16 06:34:16;;;;;;;0.80;0.80;;;22.30;71.00;;;;;;4955499;29;20444;-72
2022/08/16 06:36:42;;;;;;;0.70;0.70;;;22.40;70.70;;;;;;4955502;29;20454;-71
2022/08/16 06:39:09;;;;;;;0.70;0.60;;;22.40;71.70;;;;;;4955525;29;20522;-71
2022/08/16 06:41:36;;;;;;;0.70;0.70;;;22.70;70.80;;;;;;4955072;28;20975;-71
2022/08/16 06:44:03;;;;;;;0.70;0.70;;;22.90;70.60;;;;;;4955145;29;20451;-71
2022/08/16 06:46:35;;;;;;;0.80;0.70;;;23.10;69.10;;;;;;4955555;28;20454;-71
2022/08/16 06:49:03;;;;;;;0.80;0.70;;;23.10;69.50;;;;;;4955726;28;20436;-72
2022/08/16 06:51:30;;;;;;;0.70;0.60;;;23.30;68.90;;;;;;4955314;28;20475;-72
2022/08/16 06:53:57;;;;;;;0.70;0.70;;;23.50;68.90;;;;;;4955396;29;20506;-71
2022/08/16 06:56:24;;;;;;;0.70;0.60;;;23.70;68.40;;;;;;4955263;29;20524;-72
2022/08/16 06:58:52;;;;;;;0.70;0.60;;;23.80;66.90;;;;;;4955317;29;20458;-72
2022/08/16 07:01:18;;;;;;;0.70;0.60;;;23.90;67.50;;;;;;4954775;28;20933;-71
2022/08/16 07:03:47;;;;;;;0.80;0.80;;;24.00;66.60;;;;;;4955248;29;20506;-72
2022/08/16 07:06:14;;;;;;;0.70;0.70;;;23.80;67.70;;;;;;4955231;29;20454;-71
2022/08/16 07:08:41;;;;;;;0.90;0.70;;;23.90;67.40;;;;;;4955208;29;20458;-72
2022/08/16 07:11:08;;;;;;;0.80;0.70;;;24.10;66.70;;;;;;4955163;28;20549;-72
2022/08/16 07:13:35;;;;;;;0.80;0.70;;;24.10;66.50;;;;;;4955196;29;20454;-72
2022/08/16 07:16:04;;;;;;;0.80;0.70;;;24.30;66.60;;;;;;4954766;29;20475;-71
2022/08/16 07:18:31;;;;;;;0.90;0.60;;;24.70;65.90;;;;;;4955934;29;20486;-73
2022/08/16 07:20:59;;;;;;;0.80;0.70;;;24.70;64.80;;;;;;4955054;28;20838;-73
2022/08/16 07:23:26;;;;;;;0.70;0.70;;;25.10;63.90;;;;;;4954781;29;20966;-73
2022/08/16 07:25:54;;;;;;;1.00;0.60;;;25.40;63.20;;;;;;4954705;29;20845;-73
2022/08/16 07:28:21;;;;;;;0.90;0.60;;;25.70;62.60;;;;;;4954714;29;20546;-73
2022/08/16 07:30:48;;;;;;;0.80;0.70;;;26.00;62.10;;;;;;4954982;28;20476;-73
2022/08/16 07:33:17;;;;;;;0.90;0.80;;;26.10;60.80;;;;;;4954701;29;20938;-73
2022/08/16 07:35:44;;;;;;;0.77;0.73;;;26.30;60.90;;;;;;4954917;28;20486;-73
2022/08/16 07:38:12;;;;;;;0.80;0.80;;;26.10;60.40;;;;;;4954964;28;20455;-73
2022/08/16 07:40:39;;;;;;;0.70;0.70;;;26.20;61.40;;;;;;4954871;28;20459;-73
2022/08/16 07:43:05;;;;;;;0.80;0.70;;;26.20;60.90;;;;;;4954940;29;20454;-73
2022/08/16 07:45:33;;;;;;;1.17;0.73;;;26.20;60.80;;;;;;4954911;29;20447;-73
2022/08/16 07:48:00;;;;;;;0.73;0.70;;;26.30;59.40;;;;;;4954816;29;20869;-72
2022/08/16 07:50:27;;;;;;;0.70;0.70;;;26.00;60.50;;;;;;4954710;28;20480;-73
2022/08/16 07:52:54;;;;;;;0.80;0.80;;;26.00;61.00;;;;;;4954846;29;20452;-73
2022/08/16 07:55:22;;;;;;;0.80;0.80;;;26.20;60.10;;;;;;4954714;29;20483;-73
2022/08/16 07:57:49;;;;;;;0.80;0.70;;;26.20;59.90;;;;;;4954726;29;20589;-73
2022/08/16 08:00:16;;;;;;;0.80;0.70;;;26.40;60.20;;;;;;4956083;28;20446;-73
2022/08/16 08:02:43;;;;;;;0.70;0.70;;;26.50;59.60;;;;;;4957749;28;20486;-73
2022/08/16 08:05:09;;;;;;;0.70;0.60;;;26.60;58.50;;;;;;4958147;29;20506;-73
2022/08/16 08:07:36;;;;;;;0.80;0.80;;;26.60;59.50;;;;;;4958086;29;20446;-73
2022/08/16 08:10:04;;;;;;;0.80;0.70;;;26.70;58.30;;;;;;4957804;29;20447;-73
2022/08/16 08:12:32;;;;;;;1.00;0.80;;;26.90;57.20;;;;;;4958179;28;20479;-73
2022/08/16 08:14:59;;;;;;;1.00;0.80;;;27.10;57.70;;;;;;4957604;29;21069;-73
2022/08/16 08:17:28;;;;;;;0.90;0.90;;;27.20;56.90;;;;;;4957667;29;20955;-73
2022/08/16 08:19:55;;;;;;;0.80;0.80;;;27.20;57.10;;;;;;4957883;29;20499;-73
2022/08/16 08:22:22;;;;;;;0.87;0.70;;;27.10;56.80;;;;;;4957476;28;20923;-73
2022/08/16 08:24:50;;;;;;;2.70;0.77;;;26.90;57.40;;;;;;4957789;29;20447;-73
2022/08/16 08:27:17;;;;;;;0.70;0.70;;;26.80;57.60;;;;;;4957805;29;20457;-73
2022/08/16 08:29:45;;;;;;;0.70;0.70;;;26.60;58.30;;;;;;4957461;29;21010;-73
2022/08/16 08:32:12;;;;;;;0.70;0.70;;;25.90;59.30;;;;;;4957315;28;20851;-72
2022/08/16 08:34:38;;;;;;;0.80;0.80;;;25.50;60.30;;;;;;4957597;29;20447;-73
2022/08/16 08:37:05;;;;;;;1.00;0.70;;;25.50;61.50;;;;;;4957630;29;20443;-73
2022/08/16 08:39:33;;;;;;;0.70;0.70;;;25.80;59.90;;;;;;4957620;29;20455;-73
2022/08/16 08:42:00;;;;;;;0.80;0.70;;;26.10;59.90;;;;;;4957461;28;20471;-72
2022/08/16 08:44:27;;;;;;;0.80;0.80;;;26.30;58.70;;;;;;4957491;29;20487;-73
2022/08/16 08:46:57;;;;;;;0.70;0.70;;;26.50;58.40;;;;;;4957450;28;20534;-72
2022/08/16 08:49:24;;;;;;;0.73;0.70;;;26.60;57.30;;;;;;4957102;29;20451;-73
2022/08/16 08:51:51;;;;;;;0.80;0.80;;;26.50;58.70;;;;;;4957027;28;21037;-72
2022/08/16 08:54:18;;;;;;;1.00;0.60;;;26.60;57.80;;;;;;4957273;29;20861;-72
2022/08/16 08:56:45;;;;;;;0.80;0.70;;;26.80;57.60;;;;;;4956824;29;21058;-72
2022/08/16 08:59:12;;;;;;;0.80;0.70;;;27.20;57.20;;;;;;4957167;29;20455;-72
2022/08/16 09:01:40;;;;;;;0.83;0.83;;;27.60;56.10;;;;;;4956839;28;20498;-73
2022/08/16 09:04:09;;;;;;;0.87;0.70;;;27.80;55.80;;;;;;4957081;29;20455;-72
2022/08/16 09:06:35;;;;;;;0.77;0.77;;;27.90;55.00;;;;;;4957053;29;20450;-71
2022/08/16 09:09:03;;;;;;;0.80;0.80;;;28.00;55.50;;;;;;4956898;29;20486;-72
2022/08/16 09:11:30;;;;;;;0.90;0.80;;;28.10;54.80;;;;;;4956903;28;20467;-72
2022/08/16 09:13:57;;;;;;;0.70;0.70;;;28.10;54.50;;;;;;4957497;29;20463;-73
2022/08/16 09:16:31;;;;;;;0.73;0.70;;;27.90;55.10;;;;;;4957584;29;20475;-71
2022/08/16 09:18:58;;;;;;;0.70;0.70;;;27.80;55.50;;;;;;4956540;29;20831;-72
2022/08/16 09:21:26;;;;;;;0.80;0.80;;;27.60;55.90;;;;;;4956676;28;20478;-71
2022/08/16 09:23:53;;;;;;;0.80;0.80;;;27.50;56.30;;;;;;4956751;29;20451;-72
2022/08/16 09:26:20;;;;;;;0.90;0.70;;;27.30;56.70;;;;;;4956659;29;20471;-72
2022/08/16 09:28:47;;;;;;;0.73;0.73;;;27.10;57.10;;;;;;4956643;29;20453;-72
2022/08/16 09:31:15;;;;;;;0.70;0.70;;;27.00;57.20;;;;;;4956545;28;20482;-71
2022/08/16 09:33:43;;;;;;;0.80;0.80;;;26.90;57.90;;;;;;4956583;29;20455;-72
2022/08/16 09:36:11;;;;;;;1.00;0.70;;;26.80;58.20;;;;;;4956438;29;20545;-71
2022/08/16 09:38:39;;;;;;;0.80;0.80;;;26.80;57.60;;;;;;4956420;29;20462;-72
2022/08/16 09:41:09;;;;;;;0.90;0.70;;;26.80;58.70;;;;;;4956320;28;20471;-72
2022/08/16 09:43:37;;;;;;;0.90;0.90;;;26.90;58.30;;;;;;4956819;29;20459;-72
2022/08/16 09:46:06;;;;;;;0.70;0.70;;;26.90;57.50;;;;;;4956320;29;20443;-72
2022/08/16 09:48:33;;;;;;;0.93;0.70;;;26.90;57.80;;;;;;4956270;29;20451;-72
2022/08/16 09:51:00;;;;;;;0.73;0.73;;;26.40;58.10;;;;;;4956152;28;20467;-71
2022/08/16 09:53:29;;;;;;;0.77;0.70;;;26.00;59.00;;;;;;4956160;29;20459;-72
2022/08/16 09:55:57;;;;;;;0.80;0.60;;;26.20;58.70;;;;;;4956106;29;20483;-71
2022/08/16 09:58:26;;;;;;;0.70;0.67;;;26.50;58.40;;;;;;4955814;29;20821;-72
2022/08/16 10:00:54;;;;;;;0.80;0.77;;;26.70;57.60;;;;;;4955594;28;20979;-72
2022/08/16 10:03:21;;;;;;;0.80;0.70;;;26.80;58.20;;;;;;4956102;29;20498;-71
2022/08/16 10:05:48;;;;;;;0.83;0.80;;;26.40;57.10;;;;;;4955652;29;20451;-72
2022/08/16 10:08:16;;;;;;;0.80;0.80;;;26.10;59.40;;;;;;4955918;29;20455;-72
2022/08/16 10:13:10;;;;;;;0.70;0.70;;;26.10;58.10;;;;;;4955856;28;20541;-72
2022/08/16 10:13:32;;;;;;;0.80;0.73;;;26.20;58.10;;;;;;4955984;29;20431;-77
2022/08/16 10:15:59;;;;;;;0.70;0.70;;;26.30;58.30;;;;;;4955990;29;20467;-73
2022/08/16 10:18:28;;;;;;;0.70;0.70;;;26.50;56.60;;;;;;4955847;29;20443;-73
2022/08/16 10:20:57;;;;;;;0.80;0.70;;;26.50;56.30;;;;;;4955826;28;20542;-73
2022/08/16 10:23:24;;;;;;;0.90;0.73;;;26.50;55.80;;;;;;4956533;28;20467;-77
2022/08/16 10:25:51;;;;;;;0.80;0.70;;;26.50;55.60;;;;;;4957214;29;20447;-77
2022/08/16 10:28:18;;;;;;;0.70;0.70;;;26.60;54.90;;;;;;4958016;29;20462;-77
2022/08/16 10:30:47;;;;;;;0.90;0.73;;;26.70;56.30;;;;;;4958230;28;20467;-75
2022/08/16 10:33:14;;;;;;;0.70;0.60;;;26.80;54.90;;;;;;4956748;29;20943;-75
2022/08/16 10:35:42;;;;;;;0.80;0.80;;;27.00;55.60;;;;;;4956712;29;20482;-75
2022/08/16 10:38:08;;;;;;;0.93;0.70;;;26.90;55.30;;;;;;4957616;29;20455;-78
2022/08/16 10:40:35;;;;;;;0.77;0.67;;;27.00;55.30;;;;;;4959165;28;20506;-75
2022/08/16 10:43:02;;;;;;;0.70;0.60;;;27.10;55.00;;;;;;4957587;29;20451;-76
2022/08/16 10:45:29;;;;;;;0.70;0.60;;;27.30;55.10;;;;;;4956266;29;20478;-77
2022/08/16 10:47:58;;;;;;;0.70;0.70;;;27.40;54.40;;;;;;4956301;29;20887;-76
2022/08/16 10:50:26;;;;;;;0.70;0.60;;;27.50;54.60;;;;;;4956094;28;20455;-77
2022/08/16 10:52:53;;;;;;;0.70;0.67;;;27.60;53.20;;;;;;4956833;29;20482;-76
2022/08/16 10:55:20;;;;;;;0.80;0.70;;;27.50;53.00;;;;;;4956843;29;20830;-76
2022/08/16 10:57:47;;;;;;;0.90;0.70;;;27.40;53.30;;;;;;4955840;29;20518;-77
2022/08/16 11:00:16;;;;;;;0.70;0.60;;;27.10;53.90;;;;;;4955116;28;20992;-79
2022/08/16 11:02:45;;;;;;;0.97;0.73;;;27.20;54.10;;;;;;4954900;28;20479;-76
2022/08/16 11:05:16;;;;;;;0.70;0.60;;;27.20;54.20;;;;;;4955242;29;20474;-78
2022/08/16 11:07:45;;;;;;;0.70;0.70;;;27.20;54.40;;;;;;4955284;29;20827;-75
2022/08/16 11:10:14;;;;;;;0.70;0.60;;;27.20;54.60;;;;;;4955178;29;20502;-76
2022/08/16 11:12:41;;;;;;;0.80;0.70;;;27.40;54.00;;;;;;4955111;28;20458;-75
2022/08/16 11:15:08;;;;;;;0.80;0.70;;;27.40;53.30;;;;;;4955163;29;20447;-75
2022/08/16 11:17:35;;;;;;;0.80;0.73;;;27.60;53.90;;;;;;4954730;29;21021;-75
2022/08/16 11:20:02;;;;;;;0.80;0.80;;;27.90;53.40;;;;;;4954788;29;20970;-77
2022/08/16 11:22:31;;;;;;;1.23;0.70;;;28.20;53.50;;;;;;4955066;28;20479;-75
2022/08/16 11:24:58;;;;;;;0.70;0.60;;;28.40;51.50;;;;;;4955119;29;20602;-76
2022/08/16 11:27:25;;;;;;;0.80;0.60;;;28.20;51.90;;;;;;4955121;29;20448;-77
2022/08/16 11:29:54;;;;;;;0.80;0.70;;;28.40;52.30;;;;;;4954781;29;20510;-80
2022/08/16 11:32:21;;;;;;;0.70;0.70;;;28.40;52.20;;;;;;4955125;28;20486;-78
2022/08/16 11:34:48;;;;;;;0.80;0.70;;;28.70;53.30;;;;;;4955763;28;20455;-79
2022/08/16 11:37:14;;;;;;;0.70;0.60;;;29.00;50.70;;;;;;4958449;29;20994;-80
2022/08/16 11:39:43;;;;;;;0.80;0.70;;;29.40;50.40;;;;;;4959649;29;20447;-81
2022/08/16 11:42:10;;;;;;;0.70;0.70;;;29.40;49.60;;;;;;4958656;28;20553;-78
2022/08/16 11:44:36;;;;;;;0.80;0.60;;;29.50;49.20;;;;;;4958532;29;20447;-78
2022/08/16 11:47:03;;;;;;;0.70;0.60;;;29.60;49.80;;;;;;4958206;29;20943;-78
2022/08/16 11:49:30;;;;;;;0.70;0.60;;;29.40;48.80;;;;;;4958159;29;20483;-78
2022/08/16 11:51:57;;;;;;;0.70;0.70;;;29.50;49.20;;;;;;4958574;28;20522;-79
2022/08/16 11:54:24;;;;;;;0.80;0.60;;;29.40;49.20;;;;;;4958680;29;20873;-79
2022/08/16 11:56:52;;;;;;;0.83;0.70;;;29.50;49.30;;;;;;4958779;29;20483;-79
2022/08/16 11:59:18;;;;;;;0.90;0.73;;;29.30;48.80;;;;;;4959424;29;20468;-78
2022/08/16 12:01:45;;;;;;;0.70;0.60;;;28.90;50.20;;;;;;4957756;28;21002;-78
2022/08/16 12:04:12;;;;;;;0.70;0.70;;;28.60;50.50;;;;;;4958016;29;20840;-79
2022/08/16 12:06:39;;;;;;;0.80;0.70;;;28.70;51.10;;;;;;4958815;29;20459;-79
2022/08/16 12:09:05;;;;;;;0.70;0.60;;;28.50;50.10;;;;;;4958968;29;20451;-79
2022/08/16 12:11:32;;;;;;;0.87;0.60;;;28.50;50.80;;;;;;4959487;28;20475;-80
2022/08/16 12:14:01;;;;;;;0.83;0.63;;;28.70;52.00;;;;;;4959350;29;20455;-80
2022/08/16 12:16:27;;;;;;;0.70;0.67;;;29.20;50.60;;;;;;4959076;29;20486;-79
2022/08/16 12:18:54;;;;;;;0.97;0.87;;;29.30;50.90;;;;;;4959573;29;20466;-81
2022/08/16 12:21:21;;;;;;;0.70;0.60;;;29.60;50.20;;;;;;4959506;28;20467;-80
2022/08/16 12:23:47;;;;;;;0.77;0.70;;;29.90;49.00;;;;;;4960110;29;20451;-80
2022/08/16 12:26:16;;;;;;;1.37;0.73;;;30.20;49.00;;;;;;4959420;29;20454;-81
2022/08/16 12:28:42;;;;;;;0.80;0.80;;;30.50;48.30;;;;;;4959699;29;20451;-81
2022/08/16 12:31:10;;;;;;;0.70;0.60;;;30.80;47.20;;;;;;4960694;28;20471;-81
2022/08/16 12:33:42;;;;;;;0.70;0.70;;;30.90;48.30;;;;;;4960039;29;20451;-81
2022/08/16 12:36:10;;;;;;;1.10;0.70;;;30.90;46.90;;;;;;4960341;29;20457;-81
2022/08/16 12:38:36;;;;;;;0.70;0.70;;;30.70;47.20;;;;;;4959911;29;20509;-81
2022/08/16 12:41:03;;;;;;;0.80;0.60;;;30.70;46.90;;;;;;4960025;28;20502;-81
2022/08/16 12:43:30;;;;;;;0.80;0.60;;;30.70;47.70;;;;;;4958420;29;20475;-80
2022/08/16 12:45:58;;;;;;;0.90;0.70;;;30.80;46.30;;;;;;4959663;28;20455;-80
2022/08/16 12:51:16;;;;;;;1.00;0.70;;;30.60;46.90;;;;;;4962002;28;20459;-80
2022/08/16 12:53:43;;;;;;;1.67;0.80;;;30.20;47.10;;;;;;4964314;29;20459;-80
2022/08/16 12:56:11;;;;;;;0.80;0.80;;;30.20;48.80;;;;;;4960599;29;20459;-80
2022/08/16 12:58:39;;;;;;;1.33;0.60;;;30.40;47.60;;;;;;4959957;29;20502;-81
2022/08/16 13:01:07;;;;;;;0.80;0.70;;;30.80;47.80;;;;;;4959614;28;20483;-79
2022/08/16 13:03:38;;;;;;;0.70;0.60;;;31.10;47.50;;;;;;4959677;29;20440;-80
2022/08/16 13:06:04;;;;;;;1.33;0.70;;;31.30;46.20;;;;;;4960113;29;20471;-81
2022/08/16 13:08:31;;;;;;;0.70;0.63;;;31.30;45.80;;;;;;4957751;29;20451;-80
2022/08/16 13:10:59;;;;;;;0.70;0.70;;;30.90;46.10;;;;;;4957251;28;20478;-79
2022/08/16 13:13:26;;;;;;;0.70;0.60;;;30.70;45.90;;;;;;4957712;29;20519;-80
2022/08/16 13:15:56;;;;;;;0.80;0.80;;;30.40;47.10;;;;;;4957894;29;20459;-80
2022/08/16 13:18:23;;;;;;;0.70;0.70;;;30.20;47.30;;;;;;4957070;28;20463;-77
2022/08/16 13:20:52;;;;;;;0.70;0.70;;;30.50;47.00;;;;;;4957137;28;20526;-78
2022/08/16 13:23:19;;;;;;;0.70;0.60;;;30.50;46.90;;;;;;4957650;29;20482;-79
2022/08/16 13:25:49;;;;;;;0.80;0.67;;;30.30;46.70;;;;;;4957425;29;20536;-79
2022/08/16 13:28:17;;;;;;;0.77;0.60;;;30.60;47.20;;;;;;4956919;29;20546;-78
2022/08/16 13:30:46;;;;;;;0.80;0.70;;;31.00;46.60;;;;;;4956196;28;20483;-79
2022/08/16 13:33:15;;;;;;;0.80;0.50;;;31.40;45.30;;;;;;4957274;29;20211;-79
2022/08/16 13:35:45;;;;;;;0.70;0.60;;;31.60;44.00;;;;;;4957109;29;20510;-78
2022/08/16 13:38:13;;;;;;;0.70;0.60;;;31.90;44.00;;;;;;4956769;29;20510;-78
2022/08/16 13:40:40;;;;;;;0.70;0.50;;;32.20;43.50;;;;;;4956593;28;20502;-78
2022/08/16 13:43:07;;;;;;;0.70;0.60;;;32.40;42.40;;;;;;4956629;28;20475;-79
2022/08/16 13:45:34;;;;;;;0.70;0.60;;;32.60;42.70;;;;;;4956617;29;20452;-79
2022/08/16 13:48:00;;;;;;;0.70;0.70;;;32.60;42.00;;;;;;4956467;29;20506;-78
2022/08/16 13:50:28;;;;;;;0.60;0.50;;;32.70;41.80;;;;;;4956945;28;20455;-79
2022/08/16 13:52:55;;;;;;;0.70;0.60;;;32.90;41.80;;;;;;4956665;29;20443;-79
2022/08/16 13:55:23;;;;;;;0.70;0.60;;;32.70;40.60;;;;;;4956032;29;20440;-78
2022/08/16 13:57:49;;;;;;;0.70;0.60;;;32.20;41.80;;;;;;4955579;28;20999;-77
2022/08/16 14:00:18;;;;;;;0.70;0.60;;;32.20;42.20;;;;;;4957561;29;20458;-77
2022/08/16 14:02:45;;;;;;;0.70;0.60;;;32.00;42.40;;;;;;4956818;28;20518;-76
2022/08/16 14:05:13;;;;;;;0.80;0.70;;;32.00;42.80;;;;;;4961066;29;20550;-75
2022/08/16 14:07:39;;;;;;;0.77;0.60;;;32.20;42.80;;;;;;4956316;29;20859;-75
2022/08/16 14:10:09;;;;;;;0.70;0.60;;;32.40;42.20;;;;;;4956156;29;20872;-75
2022/08/16 14:12:37;;;;;;;0.70;0.60;;;32.40;41.70;;;;;;4958442;28;21060;-75
2022/08/16 14:15:07;;;;;;;0.70;0.60;;;32.30;41.70;;;;;;4960402;29;20459;-77
2022/08/16 14:17:34;;;;;;;1.70;0.70;;;31.90;42.10;;;;;;4957963;29;21006;-77
2022/08/16 14:20:01;;;;;;;0.70;0.60;;;31.60;42.30;;;;;;4957845;29;20518;-74
2022/08/16 14:22:29;;;;;;;0.70;0.60;;;31.50;43.40;;;;;;4960580;28;20463;-76
2022/08/16 14:24:57;;;;;;;0.70;0.60;;;31.50;43.90;;;;;;4958520;29;20450;-77
2022/08/16 14:27:27;;;;;;;0.70;0.60;;;31.50;43.60;;;;;;4958233;29;20861;-78
2022/08/16 14:29:57;;;;;;;0.70;0.60;;;31.40;44.80;;;;;;4958849;29;20431;-75
2022/08/16 14:32:26;;;;;;;2.70;0.70;;;31.30;44.30;;;;;;4958156;28;20475;-74
2022/08/16 14:34:53;;;;;;;0.70;0.60;;;31.30;44.00;;;;;;4957103;29;20634;-75
2022/08/16 14:37:20;;;;;;;0.70;0.57;;;31.30;42.90;;;;;;4962147;29;20490;-74
2022/08/16 14:39:47;;;;;;;0.70;0.60;;;31.40;41.70;;;;;;4958189;29;20463;-76
2022/08/16 14:42:17;;;;;;;0.70;0.60;;;31.50;42.90;;;;;;4957480;28;20479;-75
2022/08/16 14:44:45;;;;;;;0.80;0.60;;;31.90;42.80;;;;;;4959684;29;20459;-75
2022/08/16 14:47:13;;;;;;;0.80;0.70;;;32.10;41.90;;;;;;4959316;29;20572;-74
2022/08/16 14:49:41;;;;;;;0.70;0.60;;;32.40;41.30;;;;;;4959424;29;20830;-73
2022/08/16 14:52:10;;;;;;;0.73;0.60;;;32.70;41.10;;;;;;4960516;28;20475;-74
2022/08/16 14:54:39;;;;;;;0.70;0.60;;;33.00;40.30;;;;;;4955655;29;20946;-75
2022/08/16 14:57:06;;;;;;;0.80;0.70;;;33.30;40.40;;;;;;4959574;29;20482;-75
2022/08/16 14:59:33;;;;;;;0.63;0.53;;;33.70;40.20;;;;;;4957765;28;20459;-75
2022/08/16 15:02:00;;;;;;;0.70;0.60;;;33.80;39.10;;;;;;4960788;28;20487;-74
2022/08/16 15:04:31;;;;;;;0.80;0.60;;;33.90;38.70;;;;;;4959629;29;20947;-75
2022/08/16 15:06:58;;;;;;;0.90;0.60;;;34.20;38.70;;;;;;4961708;29;20439;-74
2022/08/16 15:09:25;;;;;;;0.80;0.60;;;34.80;38.90;;;;;;4963188;28;20462;-75
2022/08/16 15:11:52;;;;;;;0.70;0.63;;;35.50;37.00;;;;;;4964946;28;20530;-75
2022/08/16 15:14:18;;;;;;;0.70;0.60;;;36.00;36.70;;;;;;4966102;29;20484;-75
2022/08/16 15:16:45;;;;;;;0.90;0.60;;;36.40;36.00;;;;;;4966646;29;20447;-75
2022/08/16 15:19:12;;;;;;;0.70;0.50;;;36.60;35.70;;;;;;4963226;29;20927;-76
2022/08/16 15:21:40;;;;;;;0.70;0.60;;;36.40;35.80;;;;;;4959831;28;20482;-78
2022/08/16 15:24:07;;;;;;;1.33;0.60;;;36.40;35.40;;;;;;4959396;29;20454;-78
2022/08/16 15:26:33;;;;;;;0.70;0.60;;;36.50;35.60;;;;;;4959027;29;20806;-78
2022/08/16 15:29:00;;;;;;;0.70;0.70;;;35.90;35.70;;;;;;4959245;29;20447;-79
2022/08/16 15:31:27;;;;;;;1.80;0.73;;;35.70;36.40;;;;;;4959623;28;20474;-78
2022/08/16 15:33:54;;;;;;;0.70;0.60;;;35.80;36.20;;;;;;4959142;29;20534;-78
2022/08/16 15:36:21;;;;;;;0.67;0.60;;;36.00;35.80;;;;;;4958873;28;21026;-78
2022/08/16 15:38:52;;;;;;;0.70;0.60;;;36.40;35.60;;;;;;4959151;29;20482;-78
2022/08/16 15:41:53;;;;;;;1.27;0.67;;;37.10;34.60;;;;;;4959198;28;20470;-78
2022/08/16 15:44:23;;;;;;;0.70;0.60;;;37.50;34.70;;;;;;4958920;29;20441;-78
2022/08/16 15:46:51;;;;;;;0.70;0.60;;;37.30;34.80;;;;;;4958605;29;20447;-78
2022/08/16 15:49:17;;;;;;;0.90;0.70;;;36.50;36.70;;;;;;4958969;29;20451;-78
2022/08/16 15:51:45;;;;;;;0.80;0.60;;;35.80;38.20;;;;;;4958836;28;20478;-78